Time;durP1;ratioP1;P1;durP2;ratioP2;P2;SDS_P1;SDS_P2;PMS_P1;PMS_P2;Temp;Humidity;BMP_temperature;BMP_pressure;BME280_temperature;BME280_humidity;BME280_pressure;Samples;Min_cycle;Max_cycle;Signal;HPM_P1;HPM_P2
2022/10/14 00:00:51;;;;;;;;;;;;;;;25.99;35.65;101266.63;5065509;28;1215;-44
2022/10/14 00:03:17;;;;;;;;;;;;;;;25.98;35.27;101265.75;5061470;28;1087;-44
2022/10/14 00:05:42;;;;;;;;;;;;;;;25.99;35.51;101262.03;5065569;28;941;-44
2022/10/14 00:08:08;;;;;;;;;;;;;;;25.97;35.86;101261.38;5063861;28;1151;-44
2022/10/14 00:10:35;;;;;;;;;;;;;;;25.98;35.76;101263.06;5056505;28;1144;-44
2022/10/14 00:13:00;;;;;;;;;;;;;;;26.01;35.34;101265.44;5064906;28;2361;-44
2022/10/14 00:15:26;;;;;;;;;;;;;;;25.99;35.49;101256.66;5070675;28;1155;-44
2022/10/14 00:17:51;;;;;;;;;;;;;;;25.99;35.49;101255.84;5065342;28;1909;-45
2022/10/14 00:20:16;;;;;;;;;;;;;;;26.03;35.38;101251.78;5061859;28;1091;-43
2022/10/14 00:22:42;;;;;;;;;;;;;;;26.00;35.61;101250.28;5056977;28;1210;-44
2022/10/14 00:25:08;;;;;;;;;;;;;;;25.99;35.64;101245.88;5056267;28;1081;-44
2022/10/14 00:27:33;;;;;;;;;;;;;;;26.00;35.67;101244.03;5056241;28;1080;-44
2022/10/14 00:29:58;;;;;;;;;;;;;;;25.98;35.67;101246.88;5065760;28;1104;-44
2022/10/14 00:32:24;;;;;;;;;;;;;;;26.00;35.55;101242.19;5073899;28;1103;-44
2022/10/14 00:34:49;;;;;;;;;;;;;;;26.03;35.40;101241.00;5057037;28;1131;-45
2022/10/14 00:37:14;;;;;;;;;;;;;;;26.01;35.82;101238.47;5056057;28;1956;-45
2022/10/14 00:39:40;;;;;;;;;;;;;;;26.01;35.59;101243.00;5058108;28;1124;-44
2022/10/14 00:42:07;;;;;;;;;;;;;;;26.03;35.90;101233.78;5075593;28;909;-45
2022/10/14 00:44:32;;;;;;;;;;;;;;;26.03;35.51;101224.81;5043390;28;1738;-44
2022/10/14 00:46:58;;;;;;;;;;;;;;;26.06;35.55;101229.06;5062650;28;1155;-44
2022/10/14 00:49:33;;;;;;;;;;;;;;;26.01;36.03;101230.38;5063814;28;1148;-45
2022/10/14 00:51:59;;;;;;;;;;;;;;;26.00;36.12;101227.84;5056418;28;1195;-45
2022/10/14 00:54:28;;;;;;;;;;;;;;;26.03;35.73;101227.53;5049495;28;920;-45
2022/10/14 00:56:53;;;;;;;;;;;;;;;26.01;35.83;101222.31;5071896;28;1905;-44
2022/10/14 00:59:18;;;;;;;;;;;;;;;26.03;35.62;101224.81;5055705;28;1159;-45
2022/10/14 01:01:44;;;;;;;;;;;;;;;26.02;35.81;101221.31;5037959;28;1365;-45
2022/10/14 01:04:09;;;;;;;;;;;;;;;25.99;35.82;101227.00;5055927;28;1156;-44
2022/10/14 01:06:52;;;;;;;;;;;;;;;26.01;35.78;101222.31;5051387;28;1140;-45
2022/10/14 01:09:30;;;;;;;;;;;;;;;25.98;35.72;101222.63;5055686;28;1073;-45
2022/10/14 01:12:07;;;;;;;;;;;;;;;26.00;35.79;101225.16;5057240;28;1324;-45
2022/10/14 01:14:37;;;;;;;;;;;;;;;26.02;35.76;101221.31;5052890;28;2743;-45
2022/10/14 01:17:04;;;;;;;;;;;;;;;25.99;35.74;101218.09;5076067;28;1974;-45
2022/10/14 01:19:29;;;;;;;;;;;;;;;25.42;36.17;101126.91;5057529;28;1025;-45
2022/10/14 01:21:57;;;;;;;;;;;;;;;26.01;35.81;101216.91;5061964;28;1119;-44
2022/10/14 01:24:25;;;;;;;;;;;;;;;25.99;35.99;101212.69;5044583;28;1121;-44
2022/10/14 01:26:57;;;;;;;;;;;;;;;25.96;36.02;101213.84;5062667;28;1123;-45
2022/10/14 01:29:37;;;;;;;;;;;;;;;25.97;35.81;101214.72;5070730;28;1155;-45
2022/10/14 01:32:04;;;;;;;;;;;;;;;25.98;35.90;101219.94;5075421;28;1182;-44
2022/10/14 01:34:32;;;;;;;;;;;;;;;25.99;35.81;101221.59;5043807;28;1219;-44
2022/10/14 01:36:59;;;;;;;;;;;;;;;26.00;35.89;101217.06;5045772;28;1902;-45
2022/10/14 01:39:25;;;;;;;;;;;;;;;25.97;36.00;101220.94;5055630;28;1226;-44
2022/10/14 01:41:55;;;;;;;;;;;;;;;25.98;36.00;101211.00;5053472;28;1108;-44
2022/10/14 01:44:21;;;;;;;;;;;;;;;25.96;35.72;101211.16;5037912;28;1758;-44
2022/10/14 01:46:47;;;;;;;;;;;;;;;26.01;35.81;101202.56;5055192;28;1541;-44
2022/10/14 01:49:18;;;;;;;;;;;;;;;25.99;35.95;101207.31;5037358;28;1149;-44
2022/10/14 01:51:47;;;;;;;;;;;;;;;26.01;35.78;101202.56;5037620;28;1195;-44
2022/10/14 01:54:14;;;;;;;;;;;;;;;25.95;35.72;101204.09;5037293;28;1113;-45
2022/10/14 01:56:39;;;;;;;;;;;;;;;26.00;35.88;101203.59;5055597;28;1898;-44
2022/10/14 01:59:04;;;;;;;;;;;;;;;25.98;35.98;101205.59;5037677;28;1172;-44
2022/10/14 02:01:30;;;;;;;;;;;;;;;26.02;35.79;101204.28;5037477;28;1208;-44
2022/10/14 02:03:55;;;;;;;;;;;;;;;26.00;36.06;101207.16;5055953;28;1021;-44
2022/10/14 02:06:28;;;;;;;;;;;;;;;26.00;36.04;101204.44;5061617;28;1179;-45
2022/10/14 02:08:57;;;;;;;;;;;;;;;26.01;35.67;101207.97;5052444;28;1112;-44
2022/10/14 02:11:22;;;;;;;;;;;;;;;26.08;35.67;101202.75;5066637;28;1097;-44
2022/10/14 02:13:54;;;;;;;;;;;;;;;26.03;35.69;101206.81;5039963;28;2347;-44
2022/10/14 02:16:35;;;;;;;;;;;;;;;26.02;35.66;101209.66;5057942;28;1170;-43
2022/10/14 02:19:13;;;;;;;;;;;;;;;26.08;35.82;101206.31;5058102;28;1230;-44
2022/10/14 02:21:51;;;;;;;;;;;;;;;26.04;35.75;101208.50;5052775;28;1113;-43
2022/10/14 02:24:20;;;;;;;;;;;;;;;26.05;35.87;101209.34;5040919;28;1176;-44
2022/10/14 02:26:46;;;;;;;;;;;;;;;26.04;35.80;101205.78;5070968;28;1125;-43
2022/10/14 02:29:11;;;;;;;;;;;;;;;26.06;35.91;101194.84;5042767;28;1132;-44
2022/10/14 02:31:37;;;;;;;;;;;;;;;26.07;35.72;101199.25;5040696;28;1019;-44
2022/10/14 02:34:03;;;;;;;;;;;;;;;26.09;35.77;101188.28;5042838;28;1137;-45
2022/10/14 02:36:28;;;;;;;;;;;;;;;26.07;35.65;101199.25;5070593;28;1894;-44
2022/10/14 02:38:54;;;;;;;;;;;;;;;26.08;35.68;101195.53;5040573;28;1156;-44
2022/10/14 02:41:20;;;;;;;;;;;;;;;26.04;35.86;101195.00;5040271;28;1101;-44
2022/10/14 02:43:45;;;;;;;;;;;;;;;26.08;35.42;101195.53;5058407;28;1788;-44
2022/10/14 02:46:10;;;;;;;;;;;;;;;26.11;35.51;101195.19;5058640;28;1128;-44
2022/10/14 02:48:36;;;;;;;;;;;;;;;26.09;35.63;101191.00;5045857;28;1148;-44
2022/10/14 02:51:01;;;;;;;;;;;;;;;26.06;35.56;101188.63;5066241;28;1115;-45
2022/10/14 02:53:26;;;;;;;;;;;;;;;26.09;35.66;101181.03;5057892;28;1053;-44
2022/10/14 02:55:51;;;;;;;;;;;;;;;26.08;35.64;101181.19;5058121;28;1017;-45
2022/10/14 02:58:17;;;;;;;;;;;;;;;26.04;35.71;101176.13;5073289;28;1901;-46
2022/10/14 03:00:42;;;;;;;;;;;;;;;26.08;35.47;101167.72;5078115;28;1119;-45
2022/10/14 03:03:07;;;;;;;;;;;;;;;26.07;35.72;101166.88;5064653;28;1103;-45
2022/10/14 03:05:33;;;;;;;;;;;;;;;26.09;35.77;101169.41;5057620;28;1108;-45
2022/10/14 03:07:58;;;;;;;;;;;;;;;26.06;35.90;101175.97;5057480;28;925;-45
2022/10/14 03:10:23;;;;;;;;;;;;;;;26.08;35.60;101170.41;5057949;28;1198;-45
2022/10/14 03:12:49;;;;;;;;;;;;;;;26.09;35.84;101172.13;5057540;28;2490;-45
2022/10/14 03:15:14;;;;;;;;;;;;;;;26.14;35.75;101169.78;5057610;28;1163;-47
2022/10/14 03:17:39;;;;;;;;;;;;;;;26.12;35.44;101174.47;5057628;28;1910;-45
2022/10/14 03:20:05;;;;;;;;;;;;;;;26.17;35.44;101166.75;5070422;28;865;-44
2022/10/14 03:22:30;;;;;;;;;;;;;;;26.14;35.47;101167.06;5058461;28;1147;-44
2022/10/14 03:24:56;;;;;;;;;;;;;;;26.25;35.57;101166.75;5057654;28;1143;-44
2022/10/14 03:27:21;;;;;;;;;;;;;;;25.72;32.84;101169.66;5056491;28;1448;-43
2022/10/14 03:29:46;;;;;;;;;;;;;;;25.32;33.01;101161.22;5066210;28;1096;-44
2022/10/14 03:32:12;;;;;;;;;;;;;;;24.95;33.44;101157.81;5076349;28;929;-44
2022/10/14 03:34:37;;;;;;;;;;;;;;;24.73;33.56;101161.81;5057427;28;1199;-44
2022/10/14 03:37:02;;;;;;;;;;;;;;;24.64;33.73;101159.06;5069789;28;1910;-44
2022/10/14 03:39:27;;;;;;;;;;;;;;;24.64;33.80;101152.88;5058814;28;1234;-45
2022/10/14 03:41:53;;;;;;;;;;;;;;;24.52;33.98;101155.81;5039379;28;1124;-44
2022/10/14 03:44:18;;;;;;;;;;;;;;;24.32;33.80;101149.75;5056576;28;2168;-45
2022/10/14 03:46:43;;;;;;;;;;;;;;;24.29;33.92;101158.13;5063674;28;1097;-41
2022/10/14 03:49:08;;;;;;;;;;;;;;;24.49;34.04;101153.41;5063531;28;1298;-38
2022/10/14 03:51:34;;;;;;;;;;;;;;;24.47;33.76;101147.34;5057470;28;1156;-42
2022/10/14 03:53:59;;;;;;;;;;;;;;;24.48;33.85;101142.81;5057024;28;1167;-42
2022/10/14 03:56:25;;;;;;;;;;;;;;;24.53;33.60;101146.72;5038379;28;1967;-39
2022/10/14 03:58:50;;;;;;;;;;;;;;;24.61;33.74;101140.56;5056846;28;1103;-41
2022/10/14 04:01:15;;;;;;;;;;;;;;;24.97;33.99;101136.13;5056796;28;1183;-41
2022/10/14 04:03:40;;;;;;;;;;;;;;;25.09;33.92;101142.91;5071078;28;1175;-40
2022/10/14 04:06:06;;;;;;;;;;;;;;;25.18;33.93;101141.97;5056544;28;1143;-40
2022/10/14 04:08:31;;;;;;;;;;;;;;;25.30;33.93;101133.59;5071404;28;878;-40
2022/10/14 04:10:57;;;;;;;;;;;;;;;25.47;33.68;101139.06;5056173;28;1108;-41
2022/10/14 04:13:22;;;;;;;;;;;;;;;25.53;34.07;101133.88;5056110;28;2354;-41
2022/10/14 04:15:48;;;;;;;;;;;;;;;25.52;34.10;101137.59;5056530;28;1136;-41
2022/10/14 04:18:13;;;;;;;;;;;;;;;25.47;34.25;101131.84;5067927;28;1910;-42
2022/10/14 04:20:38;;;;;;;;;;;;;;;25.45;34.28;101133.84;5058286;28;1088;-42
2022/10/14 04:23:04;;;;;;;;;;;;;;;25.46;34.57;101138.22;5056619;28;1171;-42
2022/10/14 04:25:29;;;;;;;;;;;;;;;25.48;34.38;101133.50;5056278;28;1159;-42
2022/10/14 04:27:54;;;;;;;;;;;;;;;25.51;34.36;101135.88;5038418;28;1270;-41
2022/10/14 04:30:19;;;;;;;;;;;;;;;25.52;34.41;101131.34;5069736;28;1117;-41
2022/10/14 04:32:45;;;;;;;;;;;;;;;25.53;34.49;101133.88;5056031;28;1119;-42
2022/10/14 04:35:11;;;;;;;;;;;;;;;25.55;34.49;101133.69;5056217;28;1163;-42
2022/10/14 04:37:36;;;;;;;;;;;;;;;25.59;34.69;101137.75;5069603;28;1901;-42
2022/10/14 04:40:02;;;;;;;;;;;;;;;25.58;34.58;101141.47;5061034;28;1199;-42
2022/10/14 04:42:27;;;;;;;;;;;;;;;25.62;34.58;101136.59;5076151;28;1119;-41
2022/10/14 04:44:53;;;;;;;;;;;;;;;25.65;34.79;101131.75;5061602;28;1836;-41
2022/10/14 04:47:18;;;;;;;;;;;;;;;25.65;34.68;101133.59;5067265;28;1115;-41
2022/10/14 04:49:43;;;;;;;;;;;;;;;25.67;34.66;101131.59;5056025;28;1218;-41
2022/10/14 04:52:09;;;;;;;;;;;;;;;25.71;34.84;101129.41;5055423;28;1162;-41
2022/10/14 04:54:34;;;;;;;;;;;;;;;25.71;34.97;101134.81;5055906;28;1092;-41
2022/10/14 04:56:59;;;;;;;;;;;;;;;25.73;34.72;101136.31;5060558;28;2021;-41
2022/10/14 04:59:25;;;;;;;;;;;;;;;25.74;34.85;101139.88;5065113;28;1179;-41
2022/10/14 05:01:50;;;;;;;;;;;;;;;25.73;34.77;101138.16;5058413;28;1203;-40
2022/10/14 05:04:15;;;;;;;;;;;;;;;25.74;34.69;101139.88;5076023;28;1139;-40
2022/10/14 05:06:40;;;;;;;;;;;;;;;25.73;34.83;101144.41;5061027;28;1128;-40
2022/10/14 05:09:06;;;;;;;;;;;;;;;25.78;35.07;101144.75;5073575;28;925;-40
2022/10/14 05:11:31;;;;;;;;;;;;;;;25.76;35.02;101149.47;5063174;28;1095;-39
2022/10/14 05:13:57;;;;;;;;;;;;;;;25.79;35.03;101157.22;5064763;28;2379;-40
2022/10/14 05:16:22;;;;;;;;;;;;;;;25.85;35.32;101149.47;5065189;28;1096;-40
2022/10/14 05:18:47;;;;;;;;;;;;;;;25.90;35.29;101161.47;5056000;28;1910;-40
2022/10/14 05:21:13;;;;;;;;;;;;;;;25.87;35.27;101158.25;5055337;28;1023;-41
2022/10/14 05:23:38;;;;;;;;;;;;;;;25.93;34.85;101154.88;5055290;28;1128;-41
2022/10/14 05:26:03;;;;;;;;;;;;;;;25.92;35.00;101155.91;5055594;28;1076;-41
2022/10/14 05:28:29;;;;;;;;;;;;;;;25.94;35.19;101156.59;5069637;28;1136;-41
2022/10/14 05:30:55;;;;;;;;;;;;;;;26.02;35.10;101153.06;5055362;28;1522;-41
2022/10/14 05:33:20;;;;;;;;;;;;;;;25.97;35.22;101148.16;5069216;28;986;-40
2022/10/14 05:35:46;;;;;;;;;;;;;;;25.96;35.09;101153.72;5055631;28;1124;-42
2022/10/14 05:38:12;;;;;;;;;;;;;;;26.01;35.00;101152.22;5069552;28;1961;-42
2022/10/14 05:40:37;;;;;;;;;;;;;;;26.00;34.74;101152.38;5065714;28;1123;-42
2022/10/14 05:43:02;;;;;;;;;;;;;;;26.04;34.38;101157.25;5073324;28;1785;-42
2022/10/14 05:45:28;;;;;;;;;;;;;;;26.01;34.59;101154.06;5073932;28;906;-42
2022/10/14 05:47:53;;;;;;;;;;;;;;;26.08;34.23;101156.94;5075539;28;1191;-41
2022/10/14 05:50:18;;;;;;;;;;;;;;;26.02;34.65;101147.66;5062627;28;1159;-42
2022/10/14 05:52:44;;;;;;;;;;;;;;;26.06;34.30;101158.97;5067488;28;1091;-41
2022/10/14 05:55:09;;;;;;;;;;;;;;;26.10;33.89;101160.31;5059127;28;1183;-42
2022/10/14 05:57:34;;;;;;;;;;;;;;;26.18;33.74;101154.94;5058910;28;1906;-42
2022/10/14 06:00:00;;;;;;;;;;;;;;;26.17;33.77;101155.94;5059285;28;1097;-39
2022/10/14 06:02:25;;;;;;;;;;;;;;;26.27;33.55;101158.50;5066731;28;1175;-42
2022/10/14 06:04:50;;;;;;;;;;;;;;;26.13;33.91;101163.53;5078691;28;1116;-41
2022/10/14 06:07:16;;;;;;;;;;;;;;;26.11;34.04;101165.53;5058981;28;1178;-42
2022/10/14 06:09:41;;;;;;;;;;;;;;;26.06;34.63;101167.88;5077529;28;941;-41
2022/10/14 06:12:06;;;;;;;;;;;;;;;26.04;34.52;101168.03;5061615;28;1127;-41
2022/10/14 06:14:32;;;;;;;;;;;;;;;26.06;34.69;101164.38;5072511;28;2699;-41
2022/10/14 06:16:57;;;;;;;;;;;;;;;26.10;34.48;101168.41;5063278;28;1918;-40
2022/10/14 06:19:22;;;;;;;;;;;;;;;26.13;34.41;101166.22;5058361;28;1089;-43
2022/10/14 06:21:47;;;;;;;;;;;;;;;26.17;34.46;101169.44;5058084;28;1022;-41
2022/10/14 06:24:13;;;;;;;;;;;;;;;26.20;34.76;101163.69;5058346;28;1156;-42
2022/10/14 06:26:39;;;;;;;;;;;;;;;26.27;34.45;101163.88;5069478;28;1131;-41
2022/10/14 06:29:04;;;;;;;;;;;;;;;26.32;34.42;101158.84;5061345;28;1123;-42
2022/10/14 06:31:30;;;;;;;;;;;;;;;26.29;34.29;101160.00;5058665;28;1128;-41
2022/10/14 06:33:55;;;;;;;;;;;;;;;26.35;34.24;101158.53;5058251;28;1072;-40
2022/10/14 06:36:20;;;;;;;;;;;;;;;26.37;33.44;101159.22;5058367;28;1097;-42
2022/10/14 06:38:45;;;;;;;;;;;;;;;26.48;33.42;101167.94;5071152;28;1959;-41
2022/10/14 06:41:11;;;;;;;;;;;;;;;26.47;34.17;101161.72;5074285;28;1144;-41
2022/10/14 06:43:36;;;;;;;;;;;;;;;26.44;34.38;101166.63;5071362;28;1669;-41
2022/10/14 06:46:02;;;;;;;;;;;;;;;26.42;34.25;101166.78;5076957;28;949;-41
2022/10/14 06:48:27;;;;;;;;;;;;;;;26.41;34.33;101163.25;5064454;28;1150;-42
2022/10/14 06:50:53;;;;;;;;;;;;;;;26.49;34.22;101158.88;5067659;28;1143;-42
2022/10/14 06:53:18;;;;;;;;;;;;;;;26.46;33.82;101162.72;5057866;28;1104;-42
2022/10/14 06:55:44;;;;;;;;;;;;;;;26.50;33.94;101172.19;5057907;28;1112;-41
2022/10/14 06:58:09;;;;;;;;;;;;;;;26.35;34.16;101166.63;5077164;28;1894;-40
2022/10/14 07:00:36;;;;;;;;;;;;;;;26.09;34.70;101154.06;5057496;28;1167;-40
2022/10/14 07:03:01;;;;;;;;;;;;;;;25.93;35.03;101152.19;5058082;28;1076;-39
2022/10/14 07:05:26;;;;;;;;;;;;;;;26.16;34.58;101148.84;5057846;28;1159;-40
2022/10/14 07:07:51;;;;;;;;;;;;;;;26.43;33.79;101144.19;5057965;28;1111;-40
2022/10/14 07:10:17;;;;;;;;;;;;;;;26.59;33.52;101142.50;5057815;28;1014;-38
2022/10/14 07:12:42;;;;;;;;;;;;;;;27.00;32.77;101142.44;5065799;28;1216;-39
2022/10/14 07:15:08;;;;;;;;;;;;;;;27.06;32.81;101140.91;5058423;28;2553;-39
2022/10/14 07:17:33;;;;;;;;;;;;;;;27.15;32.36;101139.03;5057251;28;1902;-39
2022/10/14 07:19:58;;;;;;;;;;;;;;;27.45;32.12;101141.13;5057810;28;1053;-38
2022/10/14 07:22:24;;;;;;;;;;;;;;;27.29;32.25;101134.78;5073530;28;1122;-38
2022/10/14 07:24:49;;;;;;;;;;;;;;;27.22;32.65;101133.78;5057523;28;1081;-39
2022/10/14 07:27:19;;;;;;;;;;;;;;;27.30;32.33;101132.91;5059456;28;1100;-37
2022/10/14 07:29:44;;;;;;;;;;;;;;;27.53;31.97;101132.16;5068917;28;1170;-37
2022/10/14 07:32:09;;;;;;;;;;;;;;;27.49;32.51;101120.84;5057976;28;1135;-39
2022/10/14 07:34:35;;;;;;;;;;;;;;;27.64;33.39;101126.34;5070949;28;1182;-39
2022/10/14 07:37:00;;;;;;;;;;;;;;;27.60;33.20;101131.25;5069703;28;1961;-39
2022/10/14 07:39:26;;;;;;;;;;;;;;;27.65;33.27;101125.31;5058547;28;1163;-38
2022/10/14 07:41:51;;;;;;;;;;;;;;;27.59;34.13;101120.63;5063371;28;1100;-39
2022/10/14 07:44:17;;;;;;;;;;;;;;;27.74;34.34;101118.88;5065203;28;1677;-39
2022/10/14 07:46:43;;;;;;;;;;;;;;;27.82;34.17;101112.59;5072921;28;1459;-39
2022/10/14 07:49:18;;;;;;;;;;;;;;;27.48;33.76;101120.00;5057042;28;1183;-39
2022/10/14 07:51:43;;;;;;;;;;;;;;;27.05;34.49;101128.44;5060222;28;1089;-39
2022/10/14 07:54:11;;;;;;;;;;;;;;;27.14;35.73;101124.69;5067724;28;1104;-40
2022/10/14 07:56:37;;;;;;;;;;;;;;;27.13;35.64;101130.25;5059419;28;1963;-40
2022/10/14 07:59:02;;;;;;;;;;;;;;;27.06;35.56;101122.00;5069221;28;1080;-39
2022/10/14 08:01:28;;;;;;;;;;;;;;;27.05;35.52;101122.19;5056850;28;1116;-39
2022/10/14 08:03:53;;;;;;;;;;;;;;;27.02;35.57;101124.25;5062448;28;1101;-39
2022/10/14 08:06:18;;;;;;;;;;;;;;;26.99;36.00;101113.72;5064716;28;1151;-40
2022/10/14 08:08:44;;;;;;;;;;;;;;;26.96;35.65;101114.09;5073652;28;1187;-40
2022/10/14 08:11:09;;;;;;;;;;;;;;;26.90;36.54;101106.69;5076636;28;1095;-39
2022/10/14 08:13:35;;;;;;;;;;;;;;;26.91;36.29;101116.47;5059888;28;2318;-39
2022/10/14 08:16:00;;;;;;;;;;;;;;;26.89;36.29;101110.41;5056542;28;1160;-39
2022/10/14 08:18:25;;;;;;;;;;;;;;;26.87;36.64;101113.28;5056494;28;1961;-39
2022/10/14 08:20:51;;;;;;;;;;;;;;;26.85;36.90;101106.34;5055901;28;1151;-39
2022/10/14 08:23:16;;;;;;;;;;;;;;;26.82;36.70;101110.25;5067624;28;1155;-37
2022/10/14 08:25:42;;;;;;;;;;;;;;;26.84;37.00;101107.38;5059452;28;1124;-38
2022/10/14 08:28:08;;;;;;;;;;;;;;;26.85;36.87;101109.06;5056185;28;1096;-37
2022/10/14 08:30:33;;;;;;;;;;;;;;;26.90;36.77;101106.69;5056575;28;1116;-39
2022/10/14 08:32:59;;;;;;;;;;;;;;;26.82;37.39;101109.41;5059347;28;1183;-38
2022/10/14 08:35:24;;;;;;;;;;;;;;;26.86;37.49;101108.06;5069410;28;1155;-39
2022/10/14 08:37:59;;;;;;;;;;;;;;;26.82;37.16;101110.25;5057207;28;1906;-39
2022/10/14 08:40:24;;;;;;;;;;;;;;;26.83;37.57;101100.28;5064023;28;1128;-38
2022/10/14 08:43:00;;;;;;;;;;;;;;;26.82;37.62;101107.56;5076065;28;1559;-39
2022/10/14 08:45:28;;;;;;;;;;;;;;;26.89;37.26;101102.31;5055679;28;1112;-40
2022/10/14 08:47:54;;;;;;;;;;;;;;;26.82;37.04;101115.66;5038337;28;1124;-38
2022/10/14 08:50:29;;;;;;;;;;;;;;;26.83;37.76;101114.63;5055940;28;1109;-38
2022/10/14 08:52:55;;;;;;;;;;;;;;;26.82;37.59;101115.66;5038257;28;1124;-39
2022/10/14 08:55:24;;;;;;;;;;;;;;;26.80;37.83;101111.44;5056046;28;1128;-40
2022/10/14 08:57:51;;;;;;;;;;;;;;;26.86;37.34;101116.97;5039902;28;2215;-40
2022/10/14 09:00:18;;;;;;;;;;;;;;;26.83;37.59;101117.31;5038019;28;1105;-40
2022/10/14 09:02:47;;;;;;;;;;;;;;;26.83;37.36;101117.31;5055587;28;1116;-39
2022/10/14 09:05:13;;;;;;;;;;;;;;;26.85;37.28;101114.44;5055563;28;1121;-40
2022/10/14 09:07:38;;;;;;;;;;;;;;;26.85;37.62;101119.84;5037872;28;1195;-40
2022/10/14 09:10:10;;;;;;;;;;;;;;;26.85;37.41;101118.00;5047841;28;1038;-39
2022/10/14 09:12:35;;;;;;;;;;;;;;;26.87;37.57;101125.94;5050788;28;1147;-38
2022/10/14 09:15:12;;;;;;;;;;;;;;;26.93;37.29;101127.94;5068969;28;2672;-39
2022/10/14 09:17:42;;;;;;;;;;;;;;;26.89;37.68;101124.72;5055569;28;1910;-39
2022/10/14 09:20:15;;;;;;;;;;;;;;;26.89;37.44;101124.72;5037480;28;1440;-39
2022/10/14 09:22:40;;;;;;;;;;;;;;;26.84;37.89;101128.97;5070171;28;933;-38
2022/10/14 09:25:14;;;;;;;;;;;;;;;26.84;37.62;101132.50;5064871;28;1151;-38
2022/10/14 09:27:40;;;;;;;;;;;;;;;26.91;37.19;101129.94;5059513;28;1128;-38
2022/10/14 09:30:09;;;;;;;;;;;;;;;27.08;36.42;101130.78;5059414;28;1089;-39
2022/10/14 09:32:34;;;;;;;;;;;;;;;27.10;36.73;101127.91;5063517;28;1093;-39
2022/10/14 09:35:00;;;;;;;;;;;;;;;27.06;38.12;101132.00;5062657;28;890;-38
2022/10/14 09:37:26;;;;;;;;;;;;;;;27.00;39.04;101128.94;5059146;28;1906;-39
2022/10/14 09:39:52;;;;;;;;;;;;;;;27.04;39.16;101126.78;5059497;28;1155;-39
2022/10/14 09:42:47;;;;;;;;;;;;;;;27.03;39.23;101127.75;5050886;28;1164;-38
2022/10/14 09:45:13;;;;;;;;;;;;;;;26.98;39.61;101122.84;5041296;28;1400;-40
2022/10/14 09:47:49;;;;;;;;;;;;;;;27.11;39.57;101132.31;5059338;28;1104;-40
2022/10/14 09:50:24;;;;;;;;;;;;;;;27.14;39.21;101124.69;5059019;28;1116;-41
2022/10/14 09:53:13;;;;;;;;;;;;;;;27.14;39.30;101142.78;5041878;28;1081;-41
2022/10/14 09:55:39;;;;;;;;;;;;;;;27.17;39.11;101139.72;5053444;28;1701;-40
2022/10/14 09:58:06;;;;;;;;;;;;;;;27.17;38.88;101128.06;5041476;28;1970;-41
2022/10/14 10:00:31;;;;;;;;;;;;;;;27.16;39.01;101129.09;5055101;28;1560;-41
2022/10/14 10:02:56;;;;;;;;;;;;;;;27.16;39.23;101121.81;5071171;28;1099;-40
2022/10/14 10:05:22;;;;;;;;;;;;;;;27.30;38.60;101124.81;5078907;28;1108;-41
2022/10/14 10:08:00;;;;;;;;;;;;;;;27.21;38.30;101126.72;5079252;28;1123;-41
2022/10/14 10:10:25;;;;;;;;;;;;;;;27.21;38.55;101124.00;5075289;28;1056;-41
2022/10/14 10:12:50;;;;;;;;;;;;;;;27.19;38.66;101135.00;5058959;28;1973;-41
2022/10/14 10:15:20;;;;;;;;;;;;;;;27.20;38.59;101135.81;5059179;28;1076;-41
2022/10/14 10:17:46;;;;;;;;;;;;;;;27.15;38.63;101136.34;5066279;28;1914;-41
2022/10/14 10:20:26;;;;;;;;;;;;;;;27.13;38.96;101125.72;5064579;28;1088;-39
2022/10/14 10:22:52;;;;;;;;;;;;;;;27.15;38.64;101120.13;5071261;28;1000;-41
2022/10/14 10:25:18;;;;;;;;;;;;;;;27.10;38.89;101125.22;5046764;28;1084;-41
2022/10/14 10:27:47;;;;;;;;;;;;;;;27.14;38.67;101126.56;5054812;28;1120;-42
2022/10/14 10:30:26;;;;;;;;;;;;;;;27.19;38.35;101129.59;5058413;28;1167;-41
2022/10/14 10:33:03;;;;;;;;;;;;;;;27.22;38.30;101136.50;5058111;28;1160;-40
2022/10/14 10:35:31;;;;;;;;;;;;;;;27.22;37.82;101131.09;5074532;28;1067;-40
2022/10/14 10:38:01;;;;;;;;;;;;;;;27.20;37.89;101133.13;5058323;28;1905;-39
2022/10/14 10:40:26;;;;;;;;;;;;;;;27.20;38.02;101125.00;5040481;28;1168;-39
2022/10/14 10:43:01;;;;;;;;;;;;;;;27.18;38.17;101118.94;5057927;28;1479;-39
2022/10/14 10:45:26;;;;;;;;;;;;;;;27.17;37.79;101119.97;5065736;28;1073;-39
2022/10/14 10:47:55;;;;;;;;;;;;;;;27.14;38.54;101118.47;5078086;28;933;-39
2022/10/14 10:50:39;;;;;;;;;;;;;;;27.17;38.28;101111.84;5054251;28;1093;-39
2022/10/14 10:53:08;;;;;;;;;;;;;;;27.21;38.28;101121.31;5057788;28;1151;-39
2022/10/14 10:55:40;;;;;;;;;;;;;;;27.11;38.47;101116.13;5040402;28;1104;-39
2022/10/14 10:58:08;;;;;;;;;;;;;;;27.15;38.17;101122.84;5057895;28;1976;-40
2022/10/14 11:00:54;;;;;;;;;;;;;;;27.19;37.93;101124.19;5058087;28;1084;-39
2022/10/14 11:03:19;;;;;;;;;;;;;;;27.18;37.71;101110.84;5041732;28;1103;-39
2022/10/14 11:06:05;;;;;;;;;;;;;;;27.13;37.82;101104.13;5058057;28;1120;-40
2022/10/14 11:14:19;;;;;;;;;;;;;;;27.04;37.84;101107.03;5045705;28;2468;-40
2022/10/14 11:17:03;;;;;;;;;;;;;;;27.08;38.04;101111.03;5037608;28;1910;-39
2022/10/14 11:19:32;;;;;;;;;;;;;;;27.07;37.73;101112.91;5037512;28;1034;-39
2022/10/14 11:21:57;;;;;;;;;;;;;;;27.11;37.89;101110.72;5038669;28;1101;-39
2022/10/14 11:24:41;;;;;;;;;;;;;;;27.10;38.00;101103.63;5051296;28;1072;-39
2022/10/14 11:27:08;;;;;;;;;;;;;;;27.09;38.14;101104.63;5037806;28;1089;-40
2022/10/14 11:29:48;;;;;;;;;;;;;;;27.09;37.88;101108.16;5044480;28;1116;-40
2022/10/14 11:32:14;;;;;;;;;;;;;;;27.09;37.30;101102.75;5042408;28;1092;-39
2022/10/14 11:34:57;;;;;;;;;;;;;;;27.07;38.08;101094.00;5043784;28;1136;-39
2022/10/14 11:37:29;;;;;;;;;;;;;;;27.10;37.60;101092.81;5055644;28;1890;-39
2022/10/14 11:39:54;;;;;;;;;;;;;;;27.12;37.64;101098.88;5041443;28;1211;-38
2022/10/14 11:42:25;;;;;;;;;;;;;;;27.14;37.51;101107.66;5057229;28;1147;-38
2022/10/14 11:44:56;;;;;;;;;;;;;;;27.11;37.59;101099.91;5040292;28;2472;-38
2022/10/14 11:47:23;;;;;;;;;;;;;;;27.11;37.14;101105.31;5017825;28;897;-39
2022/10/14 11:49:59;;;;;;;;;;;;;;;27.12;37.68;101101.59;5019849;28;1227;-39
2022/10/14 11:52:51;;;;;;;;;;;;;;;27.12;38.01;101099.75;5019138;28;1129;-39
2022/10/14 11:55:22;;;;;;;;;;;;;;;27.16;37.67;101108.31;5033001;28;1836;-38
2022/10/14 11:57:48;;;;;;;;;;;;;;;27.13;37.51;101092.47;5037291;28;1906;-39
2022/10/14 12:00:14;;;;;;;;;;;;;;;27.16;37.79;101096.69;5022714;28;900;-39
2022/10/14 12:02:58;;;;;;;;;;;;;;;27.18;37.18;101095.47;5029357;28;1152;-39
2022/10/14 12:05:38;;;;;;;;;;;;;;;27.14;37.07;101094.16;5036287;28;1187;-39
2022/10/14 12:08:33;;;;;;;;;;;;;;;27.08;37.47;101089.44;5019070;28;1093;-41
2022/10/14 12:11:00;;;;;;;;;;;;;;;27.06;37.30;101105.00;5019460;28;1381;-40
2022/10/14 12:13:40;;;;;;;;;;;;;;;27.05;37.15;101090.66;5050459;28;2305;-40
2022/10/14 12:16:06;;;;;;;;;;;;;;;27.08;37.25;101093.00;5038696;28;1124;-39
2022/10/14 12:18:31;;;;;;;;;;;;;;;27.07;37.36;101090.47;5038487;28;1906;-40
2022/10/14 12:20:57;;;;;;;;;;;;;;;27.10;37.31;101093.66;5044998;28;1180;-39
2022/10/14 12:23:28;;;;;;;;;;;;;;;27.10;37.18;101092.81;5063902;28;1214;-39
2022/10/14 12:26:13;;;;;;;;;;;;;;;27.10;37.30;101082.88;5070206;28;1210;-39
2022/10/14 12:28:39;;;;;;;;;;;;;;;27.14;37.16;101081.47;5055795;28;1369;-39
2022/10/14 12:31:24;;;;;;;;;;;;;;;27.19;36.85;101086.38;5061319;28;1155;-39
2022/10/14 12:34:08;;;;;;;;;;;;;;;27.16;37.01;101083.19;5061804;28;1155;-39
2022/10/14 12:36:33;;;;;;;;;;;;;;;27.10;37.18;101074.75;5074071;28;893;-39
2022/10/14 12:39:17;;;;;;;;;;;;;;;27.14;37.07;101083.38;5061303;28;1960;-39
2022/10/14 12:41:54;;;;;;;;;;;;;;;27.07;37.26;101074.25;5075300;28;1135;-39
2022/10/14 12:44:20;;;;;;;;;;;;;;;27.13;36.36;101084.34;5063250;28;2511;-39
2022/10/14 12:46:45;;;;;;;;;;;;;;;27.19;36.77;101085.53;5057703;28;1132;-40
2022/10/14 12:49:23;;;;;;;;;;;;;;;27.27;36.27;101080.09;5058634;28;1163;-39
2022/10/14 12:51:53;;;;;;;;;;;;;;;27.20;36.06;101074.56;5057506;28;1139;-39
2022/10/14 12:54:18;;;;;;;;;;;;;;;27.15;36.05;101076.94;5037781;28;1167;-40
2022/10/14 12:56:51;;;;;;;;;;;;;;;27.13;36.06;101077.09;5055888;28;1151;-39